createdAt,value
2023-03-17T14:47:18.578Z,439.00
2023-03-17T14:51:18.773Z,440.00
2023-03-17T14:55:18.770Z,443.00
2023-03-17T14:59:18.775Z,443.00
2023-03-17T15:03:18.774Z,443.00
2023-03-17T15:07:18.800Z,431.00
2023-03-17T15:11:18.797Z,428.00
2023-03-17T15:15:18.791Z,426.00
2023-03-17T15:19:18.281Z,427.00
2023-03-17T15:23:18.288Z,425.00
2023-03-17T15:27:18.271Z,425.00
2023-03-17T15:39:18.350Z,429.00
2023-03-17T15:43:18.280Z,434.00
2023-03-17T15:47:18.251Z,433.00
2023-03-17T15:51:18.229Z,424.00
2023-03-17T15:55:18.202Z,428.00
2023-03-17T15:59:18.158Z,426.00
2023-03-17T16:03:18.134Z,424.00
2023-03-17T16:07:18.076Z,424.00
2023-03-17T16:19:17.999Z,415.00
2023-03-17T20:51:19.393Z,438.00
2023-03-17T20:55:19.346Z,442.00
2023-03-17T20:59:19.309Z,443.00
2023-03-17T21:03:19.392Z,441.00
2023-03-17T21:07:19.245Z,437.00
2023-03-17T21:11:19.203Z,434.00
2023-03-17T21:15:19.172Z,432.00
2023-03-17T21:19:19.232Z,436.00
2023-03-17T21:23:19.475Z,439.00
2023-03-17T21:27:19.684Z,444.00
2023-03-17T21:31:19.832Z,438.00
2023-03-17T21:35:19.847Z,434.00
2023-03-17T21:39:19.918Z,431.00
2023-03-17T21:43:20.114Z,424.00
2023-03-17T21:47:20.101Z,428.00
2023-03-17T21:51:20.059Z,432.00
2023-03-17T21:55:20.009Z,434.00
2023-03-17T21:59:19.975Z,434.00
2023-03-17T22:03:20.018Z,430.00
2023-03-17T22:07:19.920Z,436.00
2023-03-17T22:11:19.895Z,438.00
2023-03-17T22:15:19.821Z,437.00
2023-03-17T22:19:21.298Z,439.00
2023-03-17T22:23:19.752Z,435.00
2023-03-17T22:27:19.724Z,437.00
2023-03-17T22:31:19.690Z,445.00
2023-03-17T22:35:19.665Z,442.00
2023-03-17T22:39:19.735Z,442.00
2023-03-17T22:43:19.919Z,439.00
2023-03-17T22:47:20.095Z,441.00
2023-03-17T22:51:20.434Z,445.00
2023-03-17T22:55:20.435Z,437.00
2023-03-17T22:59:20.466Z,437.00
2023-03-17T23:03:21.009Z,440.00
2023-03-17T23:07:20.959Z,436.00
2023-03-17T23:11:20.960Z,432.00
2023-03-17T23:15:21.040Z,433.00
2023-03-17T23:19:20.964Z,434.00
2023-03-17T23:23:20.578Z,434.00
2023-03-17T23:27:20.546Z,435.00
2023-03-17T23:31:20.577Z,436.00
2023-03-17T23:35:20.477Z,438.00
2023-03-17T23:39:20.432Z,439.00
2023-03-17T23:43:20.382Z,443.00
2023-03-17T23:47:20.471Z,440.00
2023-03-17T23:51:20.453Z,445.00
2023-03-17T23:55:20.471Z,443.00
2023-03-17T23:59:20.330Z,443.00
